createdAt,value
2018-09-30T00:00:39.147Z,7.13
2018-09-30T00:03:07.364Z,8.17
2018-09-30T00:05:35.413Z,10.00
2018-09-30T00:08:03.499Z,8.53
2018-09-30T00:10:31.670Z,7.70
2018-09-30T00:12:59.651Z,8.43
2018-09-30T00:15:27.887Z,7.90
2018-09-30T00:17:56.110Z,6.63
2018-09-30T00:20:24.264Z,7.70
2018-09-30T00:22:52.268Z,7.27
2018-09-30T00:25:25.984Z,6.33
2018-09-30T00:27:53.993Z,6.07
2018-09-30T00:30:21.976Z,5.93
2018-09-30T00:32:49.958Z,7.27
2018-09-30T00:35:17.932Z,5.33
2018-09-30T00:37:45.898Z,5.23
2018-09-30T00:40:13.946Z,5.97
2018-09-30T00:42:41.911Z,7.63
2018-09-30T00:45:10.007Z,6.63
2018-09-30T00:47:38.019Z,5.77
2018-09-30T00:50:06.263Z,4.90
2018-09-30T00:52:34.223Z,4.43
2018-09-30T00:55:02.208Z,6.47
2018-09-30T00:57:30.240Z,5.20
2018-09-30T00:59:58.235Z,5.57
2018-09-30T01:02:26.202Z,7.90
2018-09-30T01:04:54.271Z,6.40
2018-09-30T01:07:22.255Z,6.03
2018-09-30T01:09:50.423Z,5.10
2018-09-30T01:12:18.390Z,4.67
2018-09-30T01:14:46.391Z,5.20
2018-09-30T01:17:14.392Z,5.20
2018-09-30T01:19:42.480Z,4.70
2018-09-30T01:22:10.500Z,5.43
2018-09-30T01:24:38.519Z,4.30
2018-09-30T01:27:06.497Z,7.17
2018-09-30T01:29:34.477Z,7.00
2018-09-30T01:32:02.684Z,5.30
2018-09-30T01:34:30.646Z,5.60
2018-09-30T01:36:58.633Z,5.70
2018-09-30T01:39:26.681Z,5.70
2018-09-30T01:41:54.635Z,6.83
2018-09-30T01:44:22.716Z,9.50
2018-09-30T01:46:50.685Z,6.90
2018-09-30T01:49:18.661Z,6.13
2018-09-30T01:51:56.713Z,5.13
2018-09-30T01:54:24.697Z,4.93
2018-09-30T01:56:52.638Z,9.00
2018-09-30T01:59:20.630Z,5.53
2018-09-30T02:01:48.590Z,7.23
2018-09-30T02:04:16.680Z,6.23
2018-09-30T02:06:44.663Z,6.43
2018-09-30T02:09:12.627Z,5.83
2018-09-30T02:11:41.193Z,5.20
2018-09-30T02:14:09.156Z,4.67
2018-09-30T02:16:37.233Z,6.33
2018-09-30T02:19:05.450Z,5.57
2018-09-30T02:21:33.430Z,8.73
2018-09-30T02:24:01.400Z,5.90
2018-09-30T02:26:29.400Z,5.10
2018-09-30T02:28:57.360Z,6.80
2018-09-30T02:31:25.338Z,6.77
2018-09-30T02:33:53.285Z,4.80
2018-09-30T02:36:21.315Z,5.33
2018-09-30T02:38:49.377Z,5.40
2018-09-30T02:41:17.356Z,4.90
2018-09-30T02:43:45.446Z,4.80
2018-09-30T02:46:13.491Z,4.47
2018-09-30T02:48:42.125Z,4.80
2018-09-30T02:51:10.095Z,5.80
2018-09-30T02:53:38.120Z,5.47
2018-09-30T02:56:06.100Z,5.90
2018-09-30T02:58:34.149Z,5.23
2018-09-30T03:01:02.242Z,6.07
2018-09-30T03:03:30.348Z,5.83
2018-09-30T03:05:58.328Z,5.60
2018-09-30T03:08:31.896Z,5.90
2018-09-30T03:10:59.959Z,7.00
2018-09-30T03:13:27.920Z,6.37
2018-09-30T03:15:55.991Z,6.73
2018-09-30T03:18:24.211Z,6.10
2018-09-30T03:20:52.187Z,6.13
2018-09-30T03:23:20.340Z,5.80
2018-09-30T03:25:48.429Z,6.20
2018-09-30T03:28:16.449Z,5.00
2018-09-30T03:30:44.438Z,4.93
2018-09-30T03:33:12.397Z,6.10
2018-09-30T03:35:40.389Z,5.03
2018-09-30T03:38:08.348Z,5.27
2018-09-30T03:40:36.332Z,5.30
2018-09-30T03:43:04.877Z,6.90
2018-09-30T03:45:32.870Z,5.80
2018-09-30T03:48:00.840Z,6.00
2018-09-30T03:50:28.841Z,6.30
2018-09-30T03:52:56.866Z,6.10
2018-09-30T03:55:24.849Z,5.63
2018-09-30T03:57:52.896Z,6.63
2018-09-30T04:00:21.133Z,6.83
2018-09-30T04:02:49.089Z,5.80
2018-09-30T04:05:17.134Z,5.80
2018-09-30T04:07:45.226Z,5.93
2018-09-30T04:10:13.433Z,6.13
2018-09-30T04:12:41.400Z,6.57
2018-09-30T04:17:44.118Z,6.35
2018-09-30T04:20:12.107Z,6.45
2018-09-30T04:22:40.216Z,6.15
2018-09-30T04:25:08.187Z,7.47
2018-09-30T04:27:36.369Z,7.03
2018-09-30T04:30:04.549Z,6.30
2018-09-30T04:32:32.529Z,5.83
2018-09-30T04:35:00.534Z,6.20
2018-09-30T04:37:28.507Z,7.37
2018-09-30T04:39:56.472Z,5.70
2018-09-30T04:42:24.460Z,6.47
2018-09-30T04:44:52.429Z,6.20
2018-09-30T04:47:20.437Z,6.20
2018-09-30T04:49:48.395Z,5.87
2018-09-30T04:52:16.472Z,6.60
2018-09-30T04:54:45.212Z,8.18
2018-09-30T04:57:13.364Z,6.80
2018-09-30T04:59:41.379Z,5.83
2018-09-30T05:02:09.426Z,6.85
2018-09-30T05:04:37.463Z,7.05
2018-09-30T05:07:05.652Z,8.08
2018-09-30T05:09:33.981Z,7.10
2018-09-30T05:12:02.056Z,6.30
2018-09-30T05:14:30.021Z,6.30
2018-09-30T05:16:58.114Z,6.80
2018-09-30T05:19:26.404Z,6.53
2018-09-30T05:21:54.393Z,6.90
2018-09-30T05:24:22.363Z,6.70
2018-09-30T05:26:50.352Z,6.40
2018-09-30T05:29:18.420Z,6.67
2018-09-30T05:31:46.416Z,7.30
2018-09-30T05:34:14.385Z,7.23
2018-09-30T05:36:42.366Z,6.60
2018-09-30T05:39:11.176Z,6.70
2018-09-30T05:41:39.562Z,7.37
2018-09-30T05:44:08.030Z,5.70
2018-09-30T05:46:36.068Z,6.63
2018-09-30T05:49:04.067Z,6.10
2018-09-30T05:51:32.010Z,6.40
2018-09-30T05:53:59.971Z,6.17
2018-09-30T05:56:28.093Z,6.10
2018-09-30T05:58:56.146Z,6.73
2018-09-30T06:01:24.114Z,6.60
2018-09-30T06:03:52.163Z,6.70
2018-09-30T06:06:20.221Z,6.50
2018-09-30T06:08:48.193Z,6.10
2018-09-30T06:11:16.266Z,6.40
2018-09-30T06:13:44.269Z,6.83
2018-09-30T06:16:12.242Z,6.30
2018-09-30T06:18:40.269Z,5.80
2018-09-30T06:21:08.244Z,6.70
2018-09-30T06:23:36.218Z,5.80
2018-09-30T06:26:04.180Z,6.20
2018-09-30T06:28:32.161Z,6.43
2018-09-30T06:31:00.229Z,6.33
2018-09-30T06:33:28.206Z,6.20
2018-09-30T06:35:56.199Z,6.43
2018-09-30T06:38:24.256Z,8.83
2018-09-30T06:40:52.310Z,6.27
2018-09-30T06:43:20.266Z,6.33
2018-09-30T06:45:48.256Z,5.60
2018-09-30T06:48:16.267Z,6.10
2018-09-30T06:50:44.318Z,6.07
2018-09-30T06:53:12.267Z,5.83
2018-09-30T06:55:40.228Z,5.80
2018-09-30T06:58:08.212Z,5.50
2018-09-30T07:00:36.319Z,5.63
2018-09-30T07:03:04.278Z,6.33
2018-09-30T07:05:32.392Z,6.50
2018-09-30T07:08:00.356Z,7.10
2018-09-30T07:10:28.860Z,5.00
2018-09-30T07:12:56.841Z,5.40
2018-09-30T07:15:24.861Z,5.37
2018-09-30T07:17:52.833Z,6.12
2018-09-30T07:20:20.801Z,5.40
2018-09-30T07:22:49.060Z,5.47
2018-09-30T07:25:16.982Z,6.40
2018-09-30T07:27:45.020Z,5.40
2018-09-30T07:30:12.979Z,5.30
2018-09-30T07:32:40.965Z,7.07
2018-09-30T07:35:08.921Z,6.47
2018-09-30T07:37:36.900Z,5.83
2018-09-30T07:40:04.886Z,5.83
2018-09-30T07:42:32.973Z,5.53
2018-09-30T07:45:01.013Z,5.27
2018-09-30T07:47:29.040Z,6.90
2018-09-30T07:49:57.115Z,6.40
2018-09-30T07:52:25.194Z,6.40
2018-09-30T07:54:53.260Z,5.57
2018-09-30T07:57:21.344Z,6.23
2018-09-30T07:59:49.849Z,5.92
2018-09-30T08:02:17.825Z,5.57
2018-09-30T08:04:45.842Z,5.50
2018-09-30T08:07:13.957Z,6.20
2018-09-30T08:09:41.923Z,6.00
2018-09-30T08:12:09.883Z,6.13
2018-09-30T08:14:37.997Z,5.07
2018-09-30T08:17:06.026Z,5.33
2018-09-30T08:19:34.013Z,5.50
2018-09-30T08:22:02.111Z,5.93
2018-09-30T08:24:30.135Z,12.33
2018-09-30T08:26:58.076Z,5.30
2018-09-30T08:29:26.168Z,5.10
2018-09-30T08:31:54.141Z,5.00
2018-09-30T08:34:22.225Z,5.50
2018-09-30T08:36:50.671Z,5.40
2018-09-30T08:39:18.689Z,5.47
2018-09-30T08:41:46.748Z,5.30
2018-09-30T08:44:14.868Z,5.10
2018-09-30T08:46:42.816Z,4.63
2018-09-30T08:49:10.917Z,5.10
2018-09-30T08:51:38.860Z,4.20
2018-09-30T08:54:07.065Z,4.10
2018-09-30T08:56:35.040Z,4.50
2018-09-30T08:59:03.944Z,4.03
2018-09-30T09:01:32.431Z,5.27
2018-09-30T09:04:00.517Z,4.07
2018-09-30T09:06:28.571Z,4.90
2018-09-30T09:08:56.684Z,4.30
2018-09-30T09:11:24.802Z,4.77
2018-09-30T09:13:52.821Z,5.20
2018-09-30T09:16:20.925Z,4.90
2018-09-30T09:18:48.920Z,4.23
2018-09-30T09:21:16.882Z,4.13
2018-09-30T09:23:44.888Z,4.53
2018-09-30T09:26:12.911Z,5.93
2018-09-30T09:28:40.895Z,5.57
2018-09-30T09:31:08.849Z,4.20
2018-09-30T09:33:36.861Z,4.50
2018-09-30T09:36:04.972Z,4.33
2018-09-30T09:38:32.997Z,3.70
2018-09-30T09:41:00.968Z,4.13
2018-09-30T09:43:28.976Z,3.93
2018-09-30T09:45:56.962Z,4.07
2018-09-30T09:48:24.949Z,4.00
2018-09-30T09:50:53.944Z,3.30
2018-09-30T09:53:21.957Z,3.40
2018-09-30T09:55:49.938Z,3.93
2018-09-30T09:58:17.919Z,6.57
2018-09-30T10:00:46.199Z,4.33
2018-09-30T10:03:15.595Z,3.47
2018-09-30T10:05:43.787Z,3.33
2018-09-30T10:08:11.809Z,4.10
2018-09-30T10:10:39.765Z,4.30
2018-09-30T10:13:08.425Z,3.50
2018-09-30T10:15:36.409Z,3.67
2018-09-30T10:18:04.425Z,3.70
2018-09-30T10:20:32.428Z,3.50
2018-09-30T10:23:00.384Z,3.80
2018-09-30T10:25:28.378Z,3.70
2018-09-30T10:27:56.364Z,4.53
2018-09-30T10:30:24.460Z,4.20
2018-09-30T10:32:53.341Z,3.00
2018-09-30T10:35:21.427Z,3.17
2018-09-30T10:37:49.388Z,3.20
2018-09-30T10:40:17.541Z,4.50
2018-09-30T10:42:45.525Z,4.03
2018-09-30T10:45:13.621Z,3.00
2018-09-30T10:47:41.690Z,2.70
2018-09-30T10:50:09.709Z,3.83
2018-09-30T10:52:37.672Z,3.10
2018-09-30T10:55:05.671Z,8.90
2018-09-30T10:57:33.642Z,4.07
2018-09-30T11:00:01.636Z,3.40
2018-09-30T11:02:29.604Z,3.57
2018-09-30T11:04:57.691Z,16.47
2018-09-30T11:07:25.672Z,6.87
2018-09-30T11:09:54.871Z,5.87
2018-09-30T11:12:22.834Z,6.90
2018-09-30T11:14:50.802Z,4.10
2018-09-30T11:17:18.884Z,3.90
2018-09-30T11:19:47.063Z,3.13
2018-09-30T11:22:15.142Z,4.93
2018-09-30T11:24:43.122Z,3.10
2018-09-30T11:27:11.179Z,3.63
2018-09-30T11:29:39.139Z,7.57
2018-09-30T11:32:07.320Z,4.53
2018-09-30T11:34:35.284Z,4.80
2018-09-30T11:37:03.260Z,2.97
2018-09-30T11:40:02.278Z,5.03
2018-09-30T11:42:30.250Z,4.17
2018-09-30T11:44:58.249Z,2.77
2018-09-30T11:47:26.227Z,8.17
2018-09-30T11:49:54.232Z,7.80
2018-09-30T11:52:22.297Z,5.20
2018-09-30T11:54:50.288Z,3.73
2018-09-30T11:57:18.351Z,3.80
2018-09-30T11:59:46.320Z,4.20
2018-09-30T12:02:14.368Z,3.33
2018-09-30T12:04:42.328Z,4.00
2018-09-30T12:07:10.316Z,3.33
2018-09-30T12:09:38.271Z,3.53
2018-09-30T12:12:06.556Z,4.47
2018-09-30T12:14:34.956Z,7.20
2018-09-30T12:17:03.003Z,6.67
2018-09-30T12:19:31.769Z,4.90
2018-09-30T12:22:00.634Z,4.20
2018-09-30T12:24:29.048Z,3.73
2018-09-30T12:26:57.056Z,3.00
2018-09-30T12:29:25.063Z,3.80
2018-09-30T12:31:53.109Z,3.97
2018-09-30T12:34:21.101Z,4.40
2018-09-30T12:36:49.138Z,3.63
2018-09-30T12:39:17.186Z,6.20
2018-09-30T12:41:45.270Z,4.70
2018-09-30T12:44:13.319Z,3.70
2018-09-30T12:46:41.414Z,3.53
2018-09-30T12:49:09.472Z,2.97
2018-09-30T12:51:37.689Z,2.30
2018-09-30T12:54:05.684Z,2.53
2018-09-30T12:56:33.792Z,3.10
2018-09-30T12:59:01.779Z,3.17
2018-09-30T13:01:29.794Z,2.77
2018-09-30T13:03:57.790Z,3.03
2018-09-30T13:06:25.998Z,2.53
2018-09-30T13:08:54.043Z,2.80
2018-09-30T13:11:22.551Z,2.90
2018-09-30T13:13:50.768Z,5.40
2018-09-30T13:16:18.863Z,3.33
2018-09-30T13:18:47.680Z,22.13
2018-09-30T13:21:15.856Z,13.50
2018-09-30T13:23:44.020Z,4.80
2018-09-30T13:26:12.272Z,4.10
2018-09-30T13:28:40.316Z,6.50
2018-09-30T13:31:08.379Z,2.90
2018-09-30T13:33:36.466Z,2.90
2018-09-30T13:36:04.443Z,2.80
2018-09-30T13:38:32.983Z,3.43
2018-09-30T13:41:01.441Z,5.07
2018-09-30T13:43:29.280Z,4.60
2018-09-30T13:45:58.214Z,4.77
2018-09-30T13:48:26.271Z,5.30
2018-09-30T13:50:54.308Z,3.03
2018-09-30T13:53:22.384Z,3.70
2018-09-30T13:55:50.360Z,3.43
2018-09-30T13:58:18.450Z,3.20
2018-09-30T14:00:46.498Z,3.20
2018-09-30T14:03:14.509Z,3.40
2018-09-30T14:05:42.585Z,3.13
2018-09-30T14:08:10.770Z,2.85
2018-09-30T14:10:38.832Z,2.60
2018-09-30T14:13:06.864Z,2.60
2018-09-30T14:15:34.859Z,2.40
2018-09-30T14:18:02.844Z,2.83
2018-09-30T14:20:30.832Z,2.60
2018-09-30T14:22:59.420Z,3.22
2018-09-30T14:25:27.388Z,3.10
2018-09-30T14:27:55.372Z,2.33
2018-09-30T14:30:23.428Z,2.30
2018-09-30T14:32:51.488Z,2.80
2018-09-30T14:35:19.541Z,2.37
2018-09-30T14:37:47.521Z,2.50
2018-09-30T14:40:15.662Z,2.20
2018-09-30T14:42:43.696Z,2.63
2018-09-30T14:45:11.689Z,2.67
2018-09-30T14:47:39.776Z,2.93
2018-09-30T14:50:08.583Z,3.00
2018-09-30T14:52:36.660Z,2.30
2018-09-30T14:55:04.962Z,2.40
2018-09-30T14:57:33.161Z,3.17
2018-09-30T15:00:01.234Z,2.60
2018-09-30T15:02:29.395Z,3.27
2018-09-30T15:04:57.379Z,2.83
2018-09-30T15:07:25.556Z,3.00
2018-09-30T15:09:53.570Z,3.10
2018-09-30T15:12:21.535Z,2.83
2018-09-30T15:14:49.528Z,2.60
2018-09-30T15:17:17.495Z,2.70
2018-09-30T15:19:45.491Z,2.90
2018-09-30T15:22:13.544Z,3.47
2018-09-30T15:24:41.533Z,2.90
2018-09-30T15:27:09.570Z,2.47
2018-09-30T15:29:37.546Z,2.43
2018-09-30T15:32:05.640Z,2.70
2018-09-30T15:34:33.689Z,3.33
2018-09-30T15:37:01.689Z,4.70
2018-09-30T15:39:29.744Z,2.40
2018-09-30T15:41:57.839Z,3.90
2018-09-30T15:44:25.985Z,3.20
2018-09-30T15:46:54.075Z,3.00
2018-09-30T15:49:22.068Z,2.27
2018-09-30T15:51:50.068Z,2.20
2018-09-30T15:54:18.329Z,2.17
2018-09-30T15:56:46.377Z,3.17
2018-09-30T15:59:14.441Z,2.23
2018-09-30T16:01:42.543Z,2.60
2018-09-30T16:04:10.704Z,2.80
2018-09-30T16:06:38.798Z,2.40
2018-09-30T16:09:07.704Z,2.43
2018-09-30T16:11:35.801Z,3.00
2018-09-30T16:14:03.801Z,2.80
2018-09-30T16:16:31.812Z,2.73
2018-09-30T16:18:59.817Z,2.87
2018-09-30T16:21:27.967Z,2.67
2018-09-30T16:23:55.918Z,2.97
2018-09-30T16:26:23.926Z,3.50
2018-09-30T16:28:51.941Z,3.43
2018-09-30T16:31:20.000Z,3.30
2018-09-30T16:33:47.993Z,2.70
2018-09-30T16:36:15.953Z,3.43
2018-09-30T16:38:43.929Z,5.30
2018-09-30T16:41:12.152Z,4.50
2018-09-30T16:43:40.271Z,3.73
2018-09-30T16:46:08.382Z,4.10
2018-09-30T16:48:36.473Z,4.60
2018-09-30T16:51:04.448Z,3.93
2018-09-30T16:53:32.422Z,3.50
2018-09-30T16:56:00.520Z,3.17
2018-09-30T16:58:28.564Z,3.73
2018-09-30T17:00:56.589Z,3.10
2018-09-30T17:03:24.608Z,3.20
2018-09-30T17:05:52.596Z,3.50
2018-09-30T17:08:20.566Z,3.20
2018-09-30T17:10:48.578Z,2.97
2018-09-30T17:13:16.779Z,3.67
2018-09-30T17:15:44.865Z,4.83
2018-09-30T17:18:12.847Z,3.87
2018-09-30T17:20:40.867Z,3.97
2018-09-30T17:23:09.215Z,5.10
2018-09-30T17:25:37.269Z,4.33
2018-09-30T17:28:05.252Z,6.20
2018-09-30T17:30:33.317Z,5.03
2018-09-30T17:33:01.305Z,4.50
2018-09-30T17:35:29.326Z,4.50
2018-09-30T17:37:57.387Z,5.27
2018-09-30T17:40:25.324Z,5.50
2018-09-30T17:42:53.380Z,5.70
2018-09-30T17:45:21.362Z,5.17
2018-09-30T17:47:49.340Z,3.60
2018-09-30T17:50:17.359Z,3.60
2018-09-30T17:52:45.312Z,4.70
2018-09-30T17:55:13.323Z,5.30
2018-09-30T17:57:41.462Z,4.47
2018-09-30T18:00:09.476Z,5.20
2018-09-30T18:02:37.485Z,5.67
2018-09-30T18:05:05.724Z,4.97
2018-09-30T18:07:33.758Z,5.13
2018-09-30T18:10:01.741Z,6.50
2018-09-30T18:12:29.775Z,5.00
2018-09-30T18:14:57.766Z,4.80
2018-09-30T18:17:26.598Z,4.90
2018-09-30T18:19:54.665Z,5.33
2018-09-30T18:22:22.681Z,5.47
2018-09-30T18:24:50.673Z,4.60
2018-09-30T18:27:19.066Z,5.90
2018-09-30T18:29:47.156Z,4.30
2018-09-30T18:32:15.930Z,4.80
2018-09-30T18:34:44.187Z,5.17
2018-09-30T18:37:12.255Z,5.07
2018-09-30T18:39:40.353Z,4.80
2018-09-30T18:42:08.299Z,4.73
2018-09-30T18:44:36.259Z,5.10
2018-09-30T18:47:04.241Z,6.07
2018-09-30T18:49:32.231Z,5.93
2018-09-30T18:52:00.242Z,5.30
2018-09-30T18:54:28.210Z,5.30
2018-09-30T18:56:56.211Z,5.70
2018-09-30T18:59:24.281Z,5.07
2018-09-30T19:01:52.355Z,4.97
2018-09-30T19:04:20.324Z,5.00
2018-09-30T19:06:48.340Z,5.30
2018-09-30T19:09:16.345Z,6.40
2018-09-30T19:11:46.501Z,4.20
2018-09-30T19:14:14.547Z,4.40
2018-09-30T19:16:42.861Z,4.70
2018-09-30T19:19:11.506Z,3.60
2018-09-30T19:21:39.880Z,3.83
2018-09-30T19:24:08.253Z,4.70
2018-09-30T19:26:36.342Z,11.10
2018-09-30T19:29:04.463Z,10.30
2018-09-30T19:31:32.495Z,16.40
2018-09-30T19:34:00.502Z,18.60
2018-09-30T19:36:28.628Z,18.30
2018-09-30T19:38:56.786Z,17.47
2018-09-30T19:41:24.810Z,14.73
2018-09-30T19:43:52.846Z,11.67
2018-09-30T19:46:20.997Z,11.20
2018-09-30T19:48:49.169Z,11.47
2018-09-30T19:51:17.487Z,10.90
2018-09-30T19:53:45.606Z,11.17
2018-09-30T19:56:13.747Z,10.30
2018-09-30T19:58:41.910Z,13.27
2018-09-30T20:01:10.018Z,19.33
2018-09-30T20:03:38.153Z,25.50
2018-09-30T20:06:07.095Z,22.13
2018-09-30T20:08:35.118Z,20.33
2018-09-30T20:11:03.243Z,15.83
2018-09-30T20:13:31.256Z,15.67
2018-09-30T20:15:59.286Z,15.70
2018-09-30T20:18:33.982Z,13.90
2018-09-30T20:21:02.085Z,14.23
2018-09-30T20:23:30.127Z,16.13
2018-09-30T20:25:58.393Z,18.70
2018-09-30T20:28:26.418Z,21.53
2018-09-30T20:30:54.637Z,21.63
2018-09-30T20:33:23.476Z,22.63
2018-09-30T20:35:51.474Z,20.20
2018-09-30T20:38:19.517Z,19.10
2018-09-30T20:40:47.509Z,19.80
2018-09-30T20:43:15.515Z,21.17
2018-09-30T20:45:43.670Z,20.72
2018-09-30T20:48:11.708Z,21.10
2018-09-30T20:50:39.762Z,22.10
2018-09-30T20:53:07.893Z,20.10
2018-09-30T20:55:36.082Z,21.70
2018-09-30T20:58:04.394Z,21.77
2018-09-30T21:00:32.534Z,21.60
2018-09-30T21:03:00.663Z,21.67
2018-09-30T21:05:38.014Z,21.17
2018-09-30T21:08:06.142Z,22.10
2018-09-30T21:10:34.341Z,22.30
2018-09-30T21:13:02.365Z,21.47
2018-09-30T21:15:30.513Z,22.63
2018-09-30T21:17:58.597Z,22.20
2018-09-30T21:20:26.641Z,20.93
2018-09-30T21:22:54.704Z,20.73
2018-09-30T21:25:22.794Z,21.30
2018-09-30T21:27:50.809Z,20.30
2018-09-30T21:30:18.909Z,22.03
2018-09-30T21:32:47.025Z,21.60
2018-09-30T21:35:15.079Z,21.83
2018-09-30T21:37:43.084Z,21.90
2018-09-30T21:40:11.138Z,22.00
2018-09-30T21:42:39.167Z,22.70
2018-09-30T21:45:08.107Z,22.83
2018-09-30T21:47:36.127Z,23.83
2018-09-30T21:50:04.290Z,23.33
2018-09-30T21:52:32.350Z,22.07
2018-09-30T21:55:00.428Z,23.10
2018-09-30T21:57:28.533Z,20.10
2018-09-30T21:59:56.534Z,20.30
2018-09-30T22:02:24.647Z,24.05
2018-09-30T22:04:52.698Z,22.50
2018-09-30T22:07:20.738Z,24.00
2018-09-30T22:09:48.775Z,21.90
2018-09-30T22:12:16.811Z,23.57
2018-09-30T22:14:44.886Z,25.10
2018-09-30T22:17:12.902Z,23.63
2018-09-30T22:19:40.914Z,22.53
2018-09-30T22:22:08.986Z,23.17
2018-09-30T22:24:36.992Z,24.93
2018-09-30T22:27:05.084Z,26.07
2018-09-30T22:29:33.030Z,24.57
2018-09-30T22:32:01.071Z,25.43
2018-09-30T22:34:29.080Z,24.33
2018-09-30T22:36:57.207Z,24.27
2018-09-30T22:39:25.200Z,24.63
2018-09-30T22:44:20.410Z,24.10
2018-09-30T22:46:48.426Z,24.73
2018-09-30T22:49:16.470Z,26.23
2018-09-30T22:51:44.747Z,24.90
2018-09-30T22:54:12.776Z,23.93
2018-09-30T22:56:40.871Z,25.17
2018-09-30T22:59:09.853Z,24.00
2018-09-30T23:01:37.951Z,25.63
2018-09-30T23:04:06.094Z,26.43
2018-09-30T23:06:34.096Z,25.70
2018-09-30T23:09:02.789Z,25.97
2018-09-30T23:11:38.218Z,25.60
2018-09-30T23:14:06.298Z,26.93
2018-09-30T23:16:34.457Z,26.57
2018-09-30T23:19:02.526Z,25.77
2018-09-30T23:21:30.642Z,24.33
2018-09-30T23:23:58.765Z,23.00
2018-09-30T23:26:26.778Z,23.40
2018-09-30T23:28:55.138Z,24.00
2018-09-30T23:31:23.141Z,24.60
2018-09-30T23:33:51.271Z,24.30
2018-09-30T23:36:19.269Z,24.40
2018-09-30T23:38:47.436Z,25.17
2018-09-30T23:41:15.471Z,22.60
2018-09-30T23:43:43.534Z,24.77
2018-09-30T23:46:11.593Z,23.77
2018-09-30T23:48:39.660Z,23.10
2018-09-30T23:51:07.753Z,23.90
2018-09-30T23:53:35.771Z,24.40
2018-09-30T23:56:03.810Z,24.60
2018-09-30T23:58:31.904Z,23.13
